Gustavsfors, Sweden

7:47 AM CEST on May 25, 2015 (GMT +0200)
Jonsarna, Ransbysatter, Varmland, Sweden | | Change Station
CLOSE
Current Station
Personal Weather Station
Location: Värmland County, VäRMLAND COUNTY
Elevation: 427 ft
Nearby Weather Stations

Elev 427 ft 60.03 °N, 13.24 °E | Updated 44 seconds ago

Mostly Cloudy
Mostly Cloudy
48.7 °F
Feels Like 49 °F
N
3.0
Wind Variable Wind from South
Gusts 4.0 mph

Today
High -- | Low -- °F
--% Chance of Precip.
Yesterday
High -- | Low -- °F
Precip. -- in
4:05 AM 9:59 PM
Waxing Crescent, 45% visible
Pressure 29.74 in
Visibility 6.2 miles
Clouds Few 400 ft
Mostly Cloudy 600 ft
Windchill 49 °F
Dew Point 46 °F
Humidity 92%
Rainfall 0.07 in
Snow Depth Not available.
UV 1.0 out of 12
Pollen Not available.
Air Quality Not available.
Flu Activity Not available.
METAR ESOK 250520Z 19009KT 9999 FEW004 BKN006 09/09 Q1007

More Conditions Fewer Conditions

Pressure 29.74 in
Visibility 6.2 miles
Clouds Few 400 ft
Mostly Cloudy 600 ft
Windchill 49 °F
Dew Point 46 °F
Humidity 92%
Rainfall 0.07 in
Snow Depth Not available.
UV 1.0 out of 12
Pollen Not available.
Air Quality Not available.
Flu Activity Not available.
METAR ESOK 250520Z 19009KT 9999 FEW004 BKN006 09/09 Q1007

More Conditions Fewer Conditions

10-Day Weather Forecast

Almanac

Astronomy

May. 25, 2015 Rise Set
Actual Time
Civil Twilight
Nautical Twilight
Astronomical Twilight
Moon
Length of Visible Light
Length of Day
Tomorrow will be .
, % of the Moon is Illuminated

Today's Extremes

Country Highs Country Lows

Community

WunderPhotos

Upload Photos

1,823,956 photos uploaded!

WunderBlogs® & News

Nearby

Air Quality

  Air Quality AQ Index Pollutant
Not available.

Snow Depth

Station Depth Elevation

Earthquake Activity

City Distance Mag. Time & Date
Minimum magnitude displayed is 2.5.

Coastal Water Temperatures

Place Temperature

Stations

Nearby Weather Stations

Station Location Temp. Windchill Dew Point Humidity Wind Precip. Elev Updated Type